Etusivu
METAR-TAF:

METAR-TAF

Lentoasemat :

Damaskoksen kansainvälinen lentoasema

Damaskos, Syyria

Leveyspiiri: 33-25N, Pituuspiiri: 036-31E, korkeus merenpinnasta: 608 m

Tämänhetkinen sää

Tämä raportti tehtiin 1 tunti ja 9 minuuttia sitten, kello 09.00 UTC
Tuuli 8 kn koillisesta
Lämpötila 16°C
Kosteus 55%
Ilmanpaine 1021 hPa
Näkyvyys 10 km tai enemmän
ei pilviä alle 1500 m:ssä eikä cumulonimbus-pilviä

METAR: OSDI 190900Z 04008KT CAVOK 16/07 Q1021

Aika: 12:09 (10:09 UTC)

Sääennuste

Ennuste voimassa 19. päivästä klo 06 UTC - 20. päivään klo 12 UTC
Tuuli 3 kn eri suunnista
Näkyvyys 10 km tai enemmän
ei pilviä alle 1500 m:ssä eikä cumulonimbus-pilviä
Ajoittain
19. päivästä klo 09 UTC - 19. päivään klo 18 UTC
Tuuli 10 kn lounaasta
Näkyvyys 10 km tai enemmän
Muutamia pilviä 3000 ft:n korkeudessa

TAF: OSDI 1906/2012 VRB03KT CAVOK TEMPO 1909/1918 22010KT 9999 FEW030

Säähavainnot ja -ennusteet yli 4000 lentoasemalta (METAR- ja TAF-raportit).

Käytössä olevat sääasemat on merkitty karttaan keltaisilla ja punaisilla pisteillä.

Aseta hiiri pisteen päälle nähdäksesi sääaseman nimen.

Klikkaa sitten nähdäksesi säähavainnot ja -ennusteet.

Kartan vaihtaminen: klikkaa mustalla rastilla varustettuja vihreitä pisteitä, niin voit zoomata sisään; viivalla varustettua vihreää pistettä, niin voit zoomata ulos tai vihreitä nuolia, niin pääset viereisille kartoille.


METAR-TAF: